PWSweather.com
Personal Weather Stations
Station Observations
ZBYSOV
ZbysovCZ 66411

ZbysovCZ 66411

Lat: 49.1578064, Lon: 16.3474598

Elevation: 350

Station Type: Davis Vantage Pro 2

http://www.pocasizbysov.info/

High Low Average
Temperature 39.2°F4.0°C 33.8°F1.0°C 37.0°F2.8°C
Dew Point 36.8°F2.7°C 30.4°F-0.9°C 34.4°F1.3°C
Winds 8.7 mph 14.0 kmh Calm Calm 5.0 mph ESE8.0 kmh ESE
Wind Gusts 12.0 mph19.3 kmh -- 7.0 mph11.3 kmh
Humidity 95% 86% 90%
Pressure 30.39 in1029.1 mb 30.15 in1021.0 mb -
Precipitation 0.00 in0.0 mm - -
Hour Temp Dew Point Humidity Winds Wind Gusts Pressure Precip Precip Rate Daily Precip Total
12:30 AM 35.2°F1.8°C 34.0°F1.1°C 95% 3.2 mph N5.1 kmh N 4.0 mph6.4 kmh 30.15 in1021.0 mb 0.00 in0.0 mm 0.00 in0.0 mm 0.00 in0.0 mm
01:00 AM 35.4°F1.9°C 34.1°F1.2°C 95% 3.2 mph NNW5.1 kmh NNW 5.0 mph8.0 kmh 30.15 in1021.0 mb 0.00 in0.0 mm 0.00 in0.0 mm 0.00 in0.0 mm
01:30 AM 35.8°F2.1°C 34.2°F1.2°C 94% 3.0 mph NNE4.8 kmh NNE 5.0 mph8.0 kmh 30.16 in1021.3 mb 0.00 in0.0 mm 0.00 in0.0 mm 0.00 in0.0 mm
02:00 AM 36.0°F2.2°C 34.4°F1.3°C 94% 1.1 mph N1.8 kmh N 3.0 mph4.8 kmh 30.16 in1021.3 mb 0.00 in0.0 mm 0.00 in0.0 mm 0.00 in0.0 mm
02:30 AM 36.0°F2.2°C 34.4°F1.3°C 94% 1.4 mph NNW2.3 kmh NNW 3.0 mph4.8 kmh 30.16 in1021.3 mb 0.00 in0.0 mm 0.00 in0.0 mm 0.00 in0.0 mm
03:00 AM 36.1°F2.3°C 34.6°F1.4°C 94% 5.0 mph N8.0 kmh N 8.0 mph12.9 kmh 30.17 in1021.7 mb 0.00 in0.0 mm 0.00 in0.0 mm 0.00 in0.0 mm
03:30 AM 36.1°F2.3°C 34.6°F1.4°C 94% 2.7 mph NE4.3 kmh NE 6.0 mph9.7 kmh 30.18 in1022.0 mb 0.00 in0.0 mm 0.00 in0.0 mm 0.00 in0.0 mm
04:00 AM 36.3°F2.4°C 34.5°F1.4°C 93% 4.6 mph NE7.4 kmh NE 6.0 mph9.7 kmh 30.18 in1022.0 mb 0.00 in0.0 mm 0.00 in0.0 mm 0.00 in0.0 mm
04:30 AM 36.7°F2.6°C 34.9°F1.6°C 93% 3.6 mph NNW5.8 kmh NNW 5.0 mph8.0 kmh 30.18 in1022.0 mb 0.00 in0.0 mm 0.00 in0.0 mm 0.00 in0.0 mm
05:00 AM 36.7°F2.6°C 34.6°F1.4°C 92% 5.1 mph N8.2 kmh N 8.0 mph12.9 kmh 30.19 in1022.4 mb 0.00 in0.0 mm 0.00 in0.0 mm 0.00 in0.0 mm
05:30 AM 36.9°F2.7°C 34.8°F1.6°C 92% 5.7 mph N9.2 kmh N 9.0 mph14.5 kmh 30.19 in1022.4 mb 0.00 in0.0 mm 0.00 in0.0 mm 0.00 in0.0 mm
06:00 AM 36.9°F2.7°C 34.8°F1.6°C 92% 4.9 mph NNE7.9 kmh NNE 8.0 mph12.9 kmh 30.20 in1022.7 mb 0.00 in0.0 mm 0.00 in0.0 mm 0.00 in0.0 mm
06:30 AM 36.9°F2.7°C 35.0°F1.7°C 93% 5.0 mph N8.0 kmh N 7.0 mph11.3 kmh 30.21 in1023.0 mb 0.00 in0.0 mm 0.00 in0.0 mm 0.00 in0.0 mm
07:00 AM 36.9°F2.7°C 35.0°F1.7°C 93% Calm Calm -- 30.21 in1023.0 mb 0.00 in0.0 mm 0.00 in0.0 mm 0.00 in0.0 mm
07:30 AM 36.9°F2.7°C 35.0°F1.7°C 93% 3.9 mph N6.3 kmh N 5.0 mph8.0 kmh 30.22 in1023.4 mb 0.00 in0.0 mm 0.00 in0.0 mm 0.00 in0.0 mm
08:00 AM 37.0°F2.8°C 35.2°F1.8°C 93% 5.3 mph N8.5 kmh N 8.0 mph12.9 kmh 30.23 in1023.7 mb 0.00 in0.0 mm 0.00 in0.0 mm 0.00 in0.0 mm
08:30 AM 37.2°F2.9°C 35.1°F1.7°C 92% 3.0 mph NNW4.8 kmh NNW 4.0 mph6.4 kmh 30.24 in1024.0 mb 0.00 in0.0 mm 0.00 in0.0 mm 0.00 in0.0 mm
09:00 AM 37.8°F3.2°C 35.7°F2.1°C 92% 3.7 mph N6.0 kmh N 7.0 mph11.3 kmh 30.24 in1024.0 mb 0.00 in0.0 mm 0.00 in0.0 mm 0.00 in0.0 mm
09:30 AM 38.5°F3.6°C 36.1°F2.3°C 91% 2.8 mph NNW4.5 kmh NNW 4.0 mph6.4 kmh 30.25 in1024.4 mb 0.00 in0.0 mm 0.00 in0.0 mm 0.00 in0.0 mm
10:00 AM 38.7°F3.7°C 36.3°F2.4°C 91% 2.7 mph N4.3 kmh N 5.0 mph8.0 kmh 30.26 in1024.7 mb 0.00 in0.0 mm 0.00 in0.0 mm 0.00 in0.0 mm
10:30 AM 39.0°F3.9°C 36.6°F2.6°C 91% 6.2 mph N10.0 kmh N 11.0 mph17.7 kmh 30.27 in1025.1 mb 0.00 in0.0 mm 0.00 in0.0 mm 0.00 in0.0 mm
11:00 AM 39.0°F3.9°C 36.3°F2.4°C 90% 7.1 mph NNE11.4 kmh NNE 10.0 mph16.1 kmh 30.27 in1025.1 mb 0.00 in0.0 mm 0.00 in0.0 mm 0.00 in0.0 mm
11:30 AM 39.0°F3.9°C 36.1°F2.3°C 89% 5.0 mph N8.0 kmh N 6.0 mph9.7 kmh 30.27 in1025.1 mb 0.00 in0.0 mm 0.00 in0.0 mm 0.00 in0.0 mm
12:00 PM 39.0°F3.9°C 36.3°F2.4°C 90% 2.9 mph NE4.7 kmh NE 5.0 mph8.0 kmh 30.28 in1025.4 mb 0.00 in0.0 mm 0.00 in0.0 mm 0.00 in0.0 mm
12:30 PM 39.0°F3.9°C 36.3°F2.4°C 90% 5.8 mph NE9.3 kmh NE 8.0 mph12.9 kmh 30.28 in1025.4 mb 0.00 in0.0 mm 0.00 in0.0 mm 0.00 in0.0 mm
01:00 PM 39.2°F4.0°C 36.8°F2.7°C 91% 3.2 mph NE5.1 kmh NE 6.0 mph9.7 kmh 30.28 in1025.4 mb 0.00 in0.0 mm 0.00 in0.0 mm 0.00 in0.0 mm
01:30 PM 39.2°F4.0°C 36.5°F2.5°C 90% 4.5 mph NE7.2 kmh NE 8.0 mph12.9 kmh 30.27 in1025.1 mb 0.00 in0.0 mm 0.00 in0.0 mm 0.00 in0.0 mm
02:00 PM 39.0°F3.9°C 36.1°F2.3°C 89% 6.0 mph NE9.7 kmh NE 10.0 mph16.1 kmh 30.28 in1025.4 mb 0.00 in0.0 mm 0.00 in0.0 mm 0.00 in0.0 mm
02:30 PM 38.8°F3.8°C 35.9°F2.2°C 89% 6.3 mph NE10.1 kmh NE 9.0 mph14.5 kmh 30.28 in1025.4 mb 0.00 in0.0 mm 0.00 in0.0 mm 0.00 in0.0 mm
03:00 PM 38.7°F3.7°C 35.7°F2.1°C 89% 4.9 mph NNW7.9 kmh NNW 8.0 mph12.9 kmh 30.29 in1025.7 mb 0.00 in0.0 mm 0.00 in0.0 mm 0.00 in0.0 mm
03:30 PM 38.5°F3.6°C 35.0°F1.7°C 87% 7.5 mph N12.1 kmh N 10.0 mph16.1 kmh 30.30 in1026.1 mb 0.00 in0.0 mm 0.00 in0.0 mm 0.00 in0.0 mm
04:00 PM 37.8°F3.2°C 34.5°F1.4°C 88% 5.5 mph NNE8.9 kmh NNE 9.0 mph14.5 kmh 30.31 in1026.4 mb 0.00 in0.0 mm 0.00 in0.0 mm 0.00 in0.0 mm
04:30 PM 37.4°F3.0°C 34.2°F1.2°C 88% 6.2 mph NE10.0 kmh NE 9.0 mph14.5 kmh 30.32 in1026.8 mb 0.00 in0.0 mm 0.00 in0.0 mm 0.00 in0.0 mm
05:00 PM 37.0°F2.8°C 33.8°F1.0°C 88% 6.6 mph N10.6 kmh N 10.0 mph16.1 kmh 30.32 in1026.8 mb 0.00 in0.0 mm 0.00 in0.0 mm 0.00 in0.0 mm
05:30 PM 36.7°F2.6°C 33.5°F0.8°C 88% 6.9 mph N11.1 kmh N 10.0 mph16.1 kmh 30.32 in1026.8 mb 0.00 in0.0 mm 0.00 in0.0 mm 0.00 in0.0 mm
06:30 PM 36.1°F2.3°C 33.2°F0.7°C 89% 5.3 mph NNE8.5 kmh NNE 9.0 mph14.5 kmh 30.33 in1027.1 mb 0.00 in0.0 mm 0.00 in0.0 mm 0.00 in0.0 mm
07:00 PM 36.1°F2.3°C 32.9°F0.5°C 88% 8.7 mph E14.0 kmh E 10.0 mph16.1 kmh 30.34 in1027.4 mb 0.00 in0.0 mm 0.00 in0.0 mm 0.00 in0.0 mm
07:30 PM 36.0°F2.2°C 32.8°F0.4°C 88% 6.6 mph NE10.6 kmh NE 9.0 mph14.5 kmh 30.34 in1027.4 mb 0.00 in0.0 mm 0.00 in0.0 mm 0.00 in0.0 mm
08:00 PM 36.0°F2.2°C 33.0°F0.6°C 89% 4.8 mph NE7.7 kmh NE 7.0 mph11.3 kmh 30.35 in1027.8 mb 0.00 in0.0 mm 0.00 in0.0 mm 0.00 in0.0 mm
08:30 PM 35.8°F2.1°C 32.3°F0.2°C 87% 4.7 mph NE7.6 kmh NE 8.0 mph12.9 kmh 30.36 in1028.1 mb 0.00 in0.0 mm 0.00 in0.0 mm 0.00 in0.0 mm
09:00 PM 35.4°F1.9°C 31.7°F-0.2°C 86% 5.9 mph NE9.5 kmh NE 9.0 mph14.5 kmh 30.37 in1028.4 mb 0.00 in0.0 mm 0.00 in0.0 mm 0.00 in0.0 mm
09:30 PM 35.2°F1.8°C 31.5°F-0.3°C 86% 2.4 mph NE3.9 kmh NE 4.0 mph6.4 kmh 30.37 in1028.4 mb 0.00 in0.0 mm 0.00 in0.0 mm 0.00 in0.0 mm
10:00 PM 35.1°F1.7°C 31.6°F-0.2°C 87% 4.0 mph N6.4 kmh N 5.0 mph8.0 kmh 30.37 in1028.4 mb 0.00 in0.0 mm 0.00 in0.0 mm 0.00 in0.0 mm
10:30 PM 34.9°F1.6°C 31.4°F-0.3°C 87% 7.0 mph NE11.3 kmh NE 12.0 mph19.3 kmh 30.37 in1028.4 mb 0.00 in0.0 mm 0.00 in0.0 mm 0.00 in0.0 mm
11:00 PM 34.2°F1.2°C 30.7°F-0.7°C 87% 7.0 mph NE11.3 kmh NE 11.0 mph17.7 kmh 30.38 in1028.8 mb 0.00 in0.0 mm 0.00 in0.0 mm 0.00 in0.0 mm
11:30 PM 33.8°F1.0°C 30.4°F-0.9°C 87% 8.3 mph ENE13.4 kmh ENE 12.0 mph19.3 kmh 30.39 in1029.1 mb 0.00 in0.0 mm 0.00 in0.0 mm 0.00 in0.0 mm